sensor_id;sensor_type;location;lat;lon;timestamp;temperature;humidity
69335;SHT31;56477;52.742;15.242;2023-01-16T00:00:05;4.48;82.77
69335;SHT31;56477;52.742;15.242;2023-01-16T00:02:31;4.41;83.04
69335;SHT31;56477;52.742;15.242;2023-01-16T00:04:59;4.42;83.02
69335;SHT31;56477;52.742;15.242;2023-01-16T00:07:25;4.41;82.96
69335;SHT31;56477;52.742;15.242;2023-01-16T00:09:51;4.37;83.52
69335;SHT31;56477;52.742;15.242;2023-01-16T00:12:17;4.39;83.07
69335;SHT31;56477;52.742;15.242;2023-01-16T00:14:43;4.45;83.14
69335;SHT31;56477;52.742;15.242;2023-01-16T00:17:09;4.48;82.83
69335;SHT31;56477;52.742;15.242;2023-01-16T00:19:35;4.49;82.91
69335;SHT31;56477;52.742;15.242;2023-01-16T00:22:01;4.55;82.65
69335;SHT31;56477;52.742;15.242;2023-01-16T00:24:27;4.58;82.44
69335;SHT31;56477;52.742;15.242;2023-01-16T00:26:53;4.58;82.31
69335;SHT31;56477;52.742;15.242;2023-01-16T00:29:19;4.55;82.63
69335;SHT31;56477;52.742;15.242;2023-01-16T00:31:45;4.50;83.02
69335;SHT31;56477;52.742;15.242;2023-01-16T00:34:11;4.50;82.94
69335;SHT31;56477;52.742;15.242;2023-01-16T00:36:37;4.52;82.74
69335;SHT31;56477;52.742;15.242;2023-01-16T00:39:04;4.52;82.72
69335;SHT31;56477;52.742;15.242;2023-01-16T00:41:30;4.52;82.75
69335;SHT31;56477;52.742;15.242;2023-01-16T00:43:56;4.46;82.82
69335;SHT31;56477;52.742;15.242;2023-01-16T00:46:25;4.49;82.71
69335;SHT31;56477;52.742;15.242;2023-01-16T00:48:51;4.48;83.24
69335;SHT31;56477;52.742;15.242;2023-01-16T00:51:17;4.45;83.07
69335;SHT31;56477;52.742;15.242;2023-01-16T00:53:43;4.50;82.76
69335;SHT31;56477;52.742;15.242;2023-01-16T00:56:09;4.45;83.27
69335;SHT31;56477;52.742;15.242;2023-01-16T00:58:35;4.48;83.20
69335;SHT31;56477;52.742;15.242;2023-01-16T01:01:02;4.49;83.23
69335;SHT31;56477;52.742;15.242;2023-01-16T01:03:28;4.49;83.36
69335;SHT31;56477;52.742;15.242;2023-01-16T01:05:54;4.48;83.39
69335;SHT31;56477;52.742;15.242;2023-01-16T01:08:20;4.50;83.48
69335;SHT31;56477;52.742;15.242;2023-01-16T01:10:46;4.53;83.37
69335;SHT31;56477;52.742;15.242;2023-01-16T01:13:12;4.56;83.57
69335;SHT31;56477;52.742;15.242;2023-01-16T01:15:38;4.63;83.10
69335;SHT31;56477;52.742;15.242;2023-01-16T01:18:04;4.63;83.40
69335;SHT31;56477;52.742;15.242;2023-01-16T01:20:31;4.65;83.28
69335;SHT31;56477;52.742;15.242;2023-01-16T01:22:57;4.72;82.69
69335;SHT31;56477;52.742;15.242;2023-01-16T01:25:23;4.77;82.61
69335;SHT31;56477;52.742;15.242;2023-01-16T01:27:49;4.70;83.31
69335;SHT31;56477;52.742;15.242;2023-01-16T01:30:15;4.73;83.07
69335;SHT31;56477;52.742;15.242;2023-01-16T01:32:41;4.76;83.03
69335;SHT31;56477;52.742;15.242;2023-01-16T01:35:08;4.79;82.80
69335;SHT31;56477;52.742;15.242;2023-01-16T01:37:35;4.80;82.59
69335;SHT31;56477;52.742;15.242;2023-01-16T01:40:04;4.83;82.74
69335;SHT31;56477;52.742;15.242;2023-01-16T01:42:38;4.86;82.15
69335;SHT31;56477;52.742;15.242;2023-01-16T01:47:51;4.90;82.08
69335;SHT31;56477;52.742;15.242;2023-01-16T01:52:50;4.89;82.13
69335;SHT31;56477;52.742;15.242;2023-01-16T01:55:17;4.96;81.74
69335;SHT31;56477;52.742;15.242;2023-01-16T01:57:54;4.93;82.06
69335;SHT31;56477;52.742;15.242;2023-01-16T02:00:24;4.91;81.91
69335;SHT31;56477;52.742;15.242;2023-01-16T02:05:32;5.00;81.43
69335;SHT31;56477;52.742;15.242;2023-01-16T02:08:02;4.99;81.41
69335;SHT31;56477;52.742;15.242;2023-01-16T02:10:32;4.99;81.59
69335;SHT31;56477;52.742;15.242;2023-01-16T02:13:00;4.93;81.88
69335;SHT31;56477;52.742;15.242;2023-01-16T02:15:27;4.93;81.81
69335;SHT31;56477;52.742;15.242;2023-01-16T02:17:53;4.94;81.73
69335;SHT31;56477;52.742;15.242;2023-01-16T02:21:00;4.96;81.89
69335;SHT31;56477;52.742;15.242;2023-01-16T02:27:00;4.89;82.54
69335;SHT31;56477;52.742;15.242;2023-01-16T02:32:28;4.93;82.42
69335;SHT31;56477;52.742;15.242;2023-01-16T02:37:40;4.87;82.44
69335;SHT31;56477;52.742;15.242;2023-01-16T02:40:21;4.89;82.62
69335;SHT31;56477;52.742;15.242;2023-01-16T02:45:51;4.80;83.10
69335;SHT31;56477;52.742;15.242;2023-01-16T02:48:46;4.75;83.37
69335;SHT31;56477;52.742;15.242;2023-01-16T02:51:31;4.68;83.59
69335;SHT31;56477;52.742;15.242;2023-01-16T02:54:36;4.69;83.54
69335;SHT31;56477;52.742;15.242;2023-01-16T02:57:09;4.68;83.74
69335;SHT31;56477;52.742;15.242;2023-01-16T02:59:36;4.63;83.81
69335;SHT31;56477;52.742;15.242;2023-01-16T03:02:02;4.62;83.92
69335;SHT31;56477;52.742;15.242;2023-01-16T03:09:49;4.55;84.13
69335;SHT31;56477;52.742;15.242;2023-01-16T03:15:30;4.49;84.43
69335;SHT31;56477;52.742;15.242;2023-01-16T03:23:14;4.37;84.82
69335;SHT31;56477;52.742;15.242;2023-01-16T03:31:16;4.14;85.55
69335;SHT31;56477;52.742;15.242;2023-01-16T03:33:58;4.08;85.75
69335;SHT31;56477;52.742;15.242;2023-01-16T03:38:58;3.93;86.27
69335;SHT31;56477;52.742;15.242;2023-01-16T03:41:27;3.87;86.75
69335;SHT31;56477;52.742;15.242;2023-01-16T03:44:00;3.79;86.94
69335;SHT31;56477;52.742;15.242;2023-01-16T03:46:29;3.77;86.80
69335;SHT31;56477;52.742;15.242;2023-01-16T03:49:13;3.71;86.97
69335;SHT31;56477;52.742;15.242;2023-01-16T03:51:51;3.70;87.10
69335;SHT31;56477;52.742;15.242;2023-01-16T03:57:15;3.63;87.15
69335;SHT31;56477;52.742;15.242;2023-01-16T03:59:44;3.62;87.23
69335;SHT31;56477;52.742;15.242;2023-01-16T04:03:08;3.50;87.63
69335;SHT31;56477;52.742;15.242;2023-01-16T04:08:22;3.40;87.88
69335;SHT31;56477;52.742;15.242;2023-01-16T04:10:52;3.33;88.23
69335;SHT31;56477;52.742;15.242;2023-01-16T04:13:21;3.31;88.42
69335;SHT31;56477;52.742;15.242;2023-01-16T04:15:52;3.29;88.47
69335;SHT31;56477;52.742;15.242;2023-01-16T04:18:20;3.19;88.73
69335;SHT31;56477;52.742;15.242;2023-01-16T04:20:48;3.18;88.79
69335;SHT31;56477;52.742;15.242;2023-01-16T04:23:15;3.13;88.94
69335;SHT31;56477;52.742;15.242;2023-01-16T04:25:44;3.12;88.99
69335;SHT31;56477;52.742;15.242;2023-01-16T04:28:10;3.11;88.87
69335;SHT31;56477;52.742;15.242;2023-01-16T04:30:37;3.07;88.97
69335;SHT31;56477;52.742;15.242;2023-01-16T04:33:04;3.08;88.85
69335;SHT31;56477;52.742;15.242;2023-01-16T04:35:30;3.02;89.11
69335;SHT31;56477;52.742;15.242;2023-01-16T04:37:56;2.97;89.32
69335;SHT31;56477;52.742;15.242;2023-01-16T04:40:23;2.95;89.38
69335;SHT31;56477;52.742;15.242;2023-01-16T04:42:49;2.94;89.49
69335;SHT31;56477;52.742;15.242;2023-01-16T04:45:15;2.92;89.38
69335;SHT31;56477;52.742;15.242;2023-01-16T04:47:48;2.94;89.30
69335;SHT31;56477;52.742;15.242;2023-01-16T04:50:15;2.90;89.51
69335;SHT31;56477;52.742;15.242;2023-01-16T04:52:41;2.87;89.56
69335;SHT31;56477;52.742;15.242;2023-01-16T04:55:08;2.87;89.57
69335;SHT31;56477;52.742;15.242;2023-01-16T04:57:34;2.91;89.53
69335;SHT31;56477;52.742;15.242;2023-01-16T05:00:01;2.87;89.71
69335;SHT31;56477;52.742;15.242;2023-01-16T05:02:27;2.95;89.49
69335;SHT31;56477;52.742;15.242;2023-01-16T05:04:53;3.04;89.22
69335;SHT31;56477;52.742;15.242;2023-01-16T05:07:19;3.08;89.10
69335;SHT31;56477;52.742;15.242;2023-01-16T05:09:45;3.04;89.25
69335;SHT31;56477;52.742;15.242;2023-01-16T05:12:11;3.01;89.35
69335;SHT31;56477;52.742;15.242;2023-01-16T05:14:37;3.01;89.47
69335;SHT31;56477;52.742;15.242;2023-01-16T05:17:03;3.05;89.41
69335;SHT31;56477;52.742;15.242;2023-01-16T05:19:29;3.00;89.43
69335;SHT31;56477;52.742;15.242;2023-01-16T05:21:55;3.02;89.46
69335;SHT31;56477;52.742;15.242;2023-01-16T05:24:21;3.09;89.17
69335;SHT31;56477;52.742;15.242;2023-01-16T05:26:47;3.12;89.09
69335;SHT31;56477;52.742;15.242;2023-01-16T05:29:13;3.11;89.11
69335;SHT31;56477;52.742;15.242;2023-01-16T05:31:39;3.15;89.14
69335;SHT31;56477;52.742;15.242;2023-01-16T05:34:05;3.19;88.75
69335;SHT31;56477;52.742;15.242;2023-01-16T05:36:31;3.12;88.87
69335;SHT31;56477;52.742;15.242;2023-01-16T05:38:57;3.16;88.89
69335;SHT31;56477;52.742;15.242;2023-01-16T05:41:23;3.18;88.75
69335;SHT31;56477;52.742;15.242;2023-01-16T05:43:49;3.15;88.71
69335;SHT31;56477;52.742;15.242;2023-01-16T05:46:15;3.15;88.69
69335;SHT31;56477;52.742;15.242;2023-01-16T05:48:41;3.18;88.64
69335;SHT31;56477;52.742;15.242;2023-01-16T05:51:07;3.19;88.53
69335;SHT31;56477;52.742;15.242;2023-01-16T05:53:33;3.19;88.16
69335;SHT31;56477;52.742;15.242;2023-01-16T05:56:06;3.21;88.25
69335;SHT31;56477;52.742;15.242;2023-01-16T05:58:32;3.15;88.15
69335;SHT31;56477;52.742;15.242;2023-01-16T06:00:58;3.13;88.30
69335;SHT31;56477;52.742;15.242;2023-01-16T06:03:24;3.15;87.85
69335;SHT31;56477;52.742;15.242;2023-01-16T06:05:50;3.13;87.88
69335;SHT31;56477;52.742;15.242;2023-01-16T06:08:16;3.12;87.65
69335;SHT31;56477;52.742;15.242;2023-01-16T06:10:42;3.11;87.89
69335;SHT31;56477;52.742;15.242;2023-01-16T06:13:11;3.12;87.67
69335;SHT31;56477;52.742;15.242;2023-01-16T06:15:37;3.08;87.81
69335;SHT31;56477;52.742;15.242;2023-01-16T06:18:04;3.00;88.00
69335;SHT31;56477;52.742;15.242;2023-01-16T06:20:30;3.00;87.96
69335;SHT31;56477;52.742;15.242;2023-01-16T06:22:56;2.95;87.98
69335;SHT31;56477;52.742;15.242;2023-01-16T06:25:22;2.94;88.04
69335;SHT31;56477;52.742;15.242;2023-01-16T06:27:49;2.90;88.02
69335;SHT31;56477;52.742;15.242;2023-01-16T06:30:16;2.85;88.36
69335;SHT31;56477;52.742;15.242;2023-01-16T06:32:46;2.81;88.36
69335;SHT31;56477;52.742;15.242;2023-01-16T06:35:13;2.80;88.18
69335;SHT31;56477;52.742;15.242;2023-01-16T06:37:39;2.76;88.38
69335;SHT31;56477;52.742;15.242;2023-01-16T06:40:06;2.70;88.35
69335;SHT31;56477;52.742;15.242;2023-01-16T06:42:32;2.64;88.62
69335;SHT31;56477;52.742;15.242;2023-01-16T06:44:58;2.60;88.84
69335;SHT31;56477;52.742;15.242;2023-01-16T06:47:24;2.60;88.42
69335;SHT31;56477;52.742;15.242;2023-01-16T06:49:50;2.57;88.55
69335;SHT31;56477;52.742;15.242;2023-01-16T06:52:16;2.53;88.49
69335;SHT31;56477;52.742;15.242;2023-01-16T06:54:42;2.49;88.58
69335;SHT31;56477;52.742;15.242;2023-01-16T06:57:08;2.43;88.88
69335;SHT31;56477;52.742;15.242;2023-01-16T06:59:34;2.40;89.04
69335;SHT31;56477;52.742;15.242;2023-01-16T07:02:00;2.39;89.13
69335;SHT31;56477;52.742;15.242;2023-01-16T07:04:26;2.39;89.00
69335;SHT31;56477;52.742;15.242;2023-01-16T07:06:52;2.42;89.00
69335;SHT31;56477;52.742;15.242;2023-01-16T07:09:18;2.34;88.99
69335;SHT31;56477;52.742;15.242;2023-01-16T07:11:47;2.30;89.01
69335;SHT31;56477;52.742;15.242;2023-01-16T07:14:13;2.25;89.08
69335;SHT31;56477;52.742;15.242;2023-01-16T07:17:12;2.23;89.14
69335;SHT31;56477;52.742;15.242;2023-01-16T07:19:57;2.21;89.02
69335;SHT31;56477;52.742;15.242;2023-01-16T07:22:41;2.22;89.06
69335;SHT31;56477;52.742;15.242;2023-01-16T07:25:22;2.22;88.88
69335;SHT31;56477;52.742;15.242;2023-01-16T07:27:50;2.19;88.98
69335;SHT31;56477;52.742;15.242;2023-01-16T07:30:17;2.25;88.96
69335;SHT31;56477;52.742;15.242;2023-01-16T07:32:43;2.22;88.93
69335;SHT31;56477;52.742;15.242;2023-01-16T07:35:09;2.19;89.10
69335;SHT31;56477;52.742;15.242;2023-01-16T07:37:35;2.19;89.04
69335;SHT31;56477;52.742;15.242;2023-01-16T07:40:01;2.22;88.99
69335;SHT31;56477;52.742;15.242;2023-01-16T07:42:29;2.25;88.94
69335;SHT31;56477;52.742;15.242;2023-01-16T07:44:55;2.23;88.93
69335;SHT31;56477;52.742;15.242;2023-01-16T07:47:22;2.25;88.93
69335;SHT31;56477;52.742;15.242;2023-01-16T07:49:47;2.26;88.89
69335;SHT31;56477;52.742;15.242;2023-01-16T07:52:14;2.29;88.53
69335;SHT31;56477;52.742;15.242;2023-01-16T07:54:40;2.29;88.65
69335;SHT31;56477;52.742;15.242;2023-01-16T07:57:07;2.37;88.26
69335;SHT31;56477;52.742;15.242;2023-01-16T07:59:32;2.39;88.06
69335;SHT31;56477;52.742;15.242;2023-01-16T08:01:59;2.37;88.20
69335;SHT31;56477;52.742;15.242;2023-01-16T08:04:27;2.42;88.17
69335;SHT31;56477;52.742;15.242;2023-01-16T08:06:53;2.37;88.21
69335;SHT31;56477;52.742;15.242;2023-01-16T08:09:19;2.36;88.22
69335;SHT31;56477;52.742;15.242;2023-01-16T08:11:45;2.44;88.00
69335;SHT31;56477;52.742;15.242;2023-01-16T08:14:14;2.43;87.91
69335;SHT31;56477;52.742;15.242;2023-01-16T08:16:41;2.47;87.88
69335;SHT31;56477;52.742;15.242;2023-01-16T08:19:07;2.52;87.88
69335;SHT31;56477;52.742;15.242;2023-01-16T08:21:34;2.54;87.70
69335;SHT31;56477;52.742;15.242;2023-01-16T08:23:59;2.61;87.53
69335;SHT31;56477;52.742;15.242;2023-01-16T08:26:26;2.61;87.44
69335;SHT31;56477;52.742;15.242;2023-01-16T08:28:52;2.64;87.16
69335;SHT31;56477;52.742;15.242;2023-01-16T08:31:19;2.68;87.16
69335;SHT31;56477;52.742;15.242;2023-01-16T08:33:45;2.73;87.06
69335;SHT31;56477;52.742;15.242;2023-01-16T08:36:13;2.71;87.14
69335;SHT31;56477;52.742;15.242;2023-01-16T08:38:41;2.70;87.04
69335;SHT31;56477;52.742;15.242;2023-01-16T08:41:08;2.76;87.18
69335;SHT31;56477;52.742;15.242;2023-01-16T08:43:54;2.80;86.75
69335;SHT31;56477;52.742;15.242;2023-01-16T08:46:39;2.91;86.61
69335;SHT31;56477;52.742;15.242;2023-01-16T08:49:34;2.88;86.30
69335;SHT31;56477;52.742;15.242;2023-01-16T08:52:19;3.07;86.02
69335;SHT31;56477;52.742;15.242;2023-01-16T08:54:45;3.12;85.74
69335;SHT31;56477;52.742;15.242;2023-01-16T08:57:12;3.25;85.40
69335;SHT31;56477;52.742;15.242;2023-01-16T08:59:38;3.32;85.05
69335;SHT31;56477;52.742;15.242;2023-01-16T09:02:06;3.40;84.83
69335;SHT31;56477;52.742;15.242;2023-01-16T09:04:34;3.48;84.49
69335;SHT31;56477;52.742;15.242;2023-01-16T09:07:04;3.46;84.44
69335;SHT31;56477;52.742;15.242;2023-01-16T09:09:30;3.52;84.34
69335;SHT31;56477;52.742;15.242;2023-01-16T09:11:57;3.52;84.19
69335;SHT31;56477;52.742;15.242;2023-01-16T09:14:59;3.55;83.81
69335;SHT31;56477;52.742;15.242;2023-01-16T09:17:27;3.58;84.11
69335;SHT31;56477;52.742;15.242;2023-01-16T09:19:53;3.58;83.75
69335;SHT31;56477;52.742;15.242;2023-01-16T09:22:20;3.67;83.66
69335;SHT31;56477;52.742;15.242;2023-01-16T09:24:47;3.79;83.62
69335;SHT31;56477;52.742;15.242;2023-01-16T09:27:13;3.89;83.19
69335;SHT31;56477;52.742;15.242;2023-01-16T09:29:40;4.28;82.42
69335;SHT31;56477;52.742;15.242;2023-01-16T09:32:07;5.03;80.00
69335;SHT31;56477;52.742;15.242;2023-01-16T09:34:35;5.73;77.20
69335;SHT31;56477;52.742;15.242;2023-01-16T09:37:03;5.41;77.61
69335;SHT31;56477;52.742;15.242;2023-01-16T09:39:29;5.55;77.16
69335;SHT31;56477;52.742;15.242;2023-01-16T09:45:00;6.31;74.34
69335;SHT31;56477;52.742;15.242;2023-01-16T09:47:28;6.45;74.23
69335;SHT31;56477;52.742;15.242;2023-01-16T09:50:00;6.44;73.43
69335;SHT31;56477;52.742;15.242;2023-01-16T09:52:32;5.87;75.38
69335;SHT31;56477;52.742;15.242;2023-01-16T09:58:19;7.09;71.93
69335;SHT31;56477;52.742;15.242;2023-01-16T10:01:31;6.55;73.00
69335;SHT31;56477;52.742;15.242;2023-01-16T10:04:13;6.76;72.24
69335;SHT31;56477;52.742;15.242;2023-01-16T10:12:13;7.47;70.46
69335;SHT31;56477;52.742;15.242;2023-01-16T10:26:27;7.33;70.20
69335;SHT31;56477;52.742;15.242;2023-01-16T10:29:14;7.43;69.87
69335;SHT31;56477;52.742;15.242;2023-01-16T10:34:39;7.79;69.09
69335;SHT31;56477;52.742;15.242;2023-01-16T10:37:06;7.68;69.42
69335;SHT31;56477;52.742;15.242;2023-01-16T10:39:35;7.98;68.90
69335;SHT31;56477;52.742;15.242;2023-01-16T10:47:50;7.57;70.51
69335;SHT31;56477;52.742;15.242;2023-01-16T10:50:35;7.19;70.80
69335;SHT31;56477;52.742;15.242;2023-01-16T10:53:03;7.50;70.40
69335;SHT31;56477;52.742;15.242;2023-01-16T10:55:30;7.48;70.51
69335;SHT31;56477;52.742;15.242;2023-01-16T10:58:42;7.55;70.39
69335;SHT31;56477;52.742;15.242;2023-01-16T11:00:50;7.12;71.52
69335;SHT31;56477;52.742;15.242;2023-01-16T11:05:46;7.99;69.70
69335;SHT31;56477;52.742;15.242;2023-01-16T11:08:16;8.19;68.41
69335;SHT31;56477;52.742;15.242;2023-01-16T11:10:47;8.23;68.42
69335;SHT31;56477;52.742;15.242;2023-01-16T11:13:18;7.78;70.03
69335;SHT31;56477;52.742;15.242;2023-01-16T11:16:27;7.92;69.70
69335;SHT31;56477;52.742;15.242;2023-01-16T11:19:16;8.34;69.79
69335;SHT31;56477;52.742;15.242;2023-01-16T11:21:48;7.88;69.41
69335;SHT31;56477;52.742;15.242;2023-01-16T11:24:23;8.39;68.12
69335;SHT31;56477;52.742;15.242;2023-01-16T11:26:55;8.51;69.00
69335;SHT31;56477;52.742;15.242;2023-01-16T11:29:27;8.95;66.33
69335;SHT31;56477;52.742;15.242;2023-01-16T11:32:00;8.78;65.66
69335;SHT31;56477;52.742;15.242;2023-01-16T11:34:29;8.75;66.33
69335;SHT31;56477;52.742;15.242;2023-01-16T11:37:01;8.72;65.03
69335;SHT31;56477;52.742;15.242;2023-01-16T11:39:31;8.56;65.40
69335;SHT31;56477;52.742;15.242;2023-01-16T11:41:59;8.74;65.37
69335;SHT31;56477;52.742;15.242;2023-01-16T11:44:56;8.95;64.85
69335;SHT31;56477;52.742;15.242;2023-01-16T11:47:43;9.01;64.64
69335;SHT31;56477;52.742;15.242;2023-01-16T11:50:28;9.14;64.29
69335;SHT31;56477;52.742;15.242;2023-01-16T11:52:55;8.89;64.40
69335;SHT31;56477;52.742;15.242;2023-01-16T11:55:28;8.60;64.52
69335;SHT31;56477;52.742;15.242;2023-01-16T11:58:20;8.49;65.04
69335;SHT31;56477;52.742;15.242;2023-01-16T12:12:08;8.78;65.51
69335;SHT31;56477;52.742;15.242;2023-01-16T12:15:20;8.71;65.97
69335;SHT31;56477;52.742;15.242;2023-01-16T12:17:58;8.80;65.50
69335;SHT31;56477;52.742;15.242;2023-01-16T12:20:59;9.14;64.97
69335;SHT31;56477;52.742;15.242;2023-01-16T12:23:47;9.05;65.14
69335;SHT31;56477;52.742;15.242;2023-01-16T12:29:09;9.00;64.09
69335;SHT31;56477;52.742;15.242;2023-01-16T12:34:44;9.01;64.08
69335;SHT31;56477;52.742;15.242;2023-01-16T12:40:26;9.00;64.22
69335;SHT31;56477;52.742;15.242;2023-01-16T12:45:56;8.46;65.30
69335;SHT31;56477;52.742;15.242;2023-01-16T12:57:18;8.51;66.41
69335;SHT31;56477;52.742;15.242;2023-01-16T13:00:00;8.16;66.67
69335;SHT31;56477;52.742;15.242;2023-01-16T13:05:19;8.25;67.35
69335;SHT31;56477;52.742;15.242;2023-01-16T13:10:40;8.02;67.97
69335;SHT31;56477;52.742;15.242;2023-01-16T13:13:29;7.71;68.31
69335;SHT31;56477;52.742;15.242;2023-01-16T13:21:02;7.81;69.01
69335;SHT31;56477;52.742;15.242;2023-01-16T13:23:38;7.48;70.13
69335;SHT31;56477;52.742;15.242;2023-01-16T13:26:11;7.54;69.81
69335;SHT31;56477;52.742;15.242;2023-01-16T13:34:28;7.05;71.56
69335;SHT31;56477;52.742;15.242;2023-01-16T13:42:11;6.75;72.29
69335;SHT31;56477;52.742;15.242;2023-01-16T13:44:40;6.71;72.88
69335;SHT31;56477;52.742;15.242;2023-01-16T13:47:28;6.68;73.39
69335;SHT31;56477;52.742;15.242;2023-01-16T13:50:27;6.49;73.59
69335;SHT31;56477;52.742;15.242;2023-01-16T13:53:00;6.52;73.69
69335;SHT31;56477;52.742;15.242;2023-01-16T13:55:30;6.48;74.08
69335;SHT31;56477;52.742;15.242;2023-01-16T13:58:07;6.57;74.15
69335;SHT31;56477;52.742;15.242;2023-01-16T14:00:37;6.48;74.30
69335;SHT31;56477;52.742;15.242;2023-01-16T14:03:21;6.57;74.36
69335;SHT31;56477;52.742;15.242;2023-01-16T14:06:20;6.59;74.27
69335;SHT31;56477;52.742;15.242;2023-01-16T14:11:37;6.45;74.64
69335;SHT31;56477;52.742;15.242;2023-01-16T14:17:19;6.23;76.01
69335;SHT31;56477;52.742;15.242;2023-01-16T14:19:58;6.05;76.43
69335;SHT31;56477;52.742;15.242;2023-01-16T14:22:39;5.93;76.61
69335;SHT31;56477;52.742;15.242;2023-01-16T14:25:16;5.89;76.67
69335;SHT31;56477;52.742;15.242;2023-01-16T14:27:49;5.89;77.35
69335;SHT31;56477;52.742;15.242;2023-01-16T14:30:25;5.70;77.60
69335;SHT31;56477;52.742;15.242;2023-01-16T14:32:55;5.68;78.07
69335;SHT31;56477;52.742;15.242;2023-01-16T14:35:28;5.63;77.69
69335;SHT31;56477;52.742;15.242;2023-01-16T14:38:02;5.60;78.39
69335;SHT31;56477;52.742;15.242;2023-01-16T14:40:33;5.52;78.13
69335;SHT31;56477;52.742;15.242;2023-01-16T14:43:27;5.48;78.33
69335;SHT31;56477;52.742;15.242;2023-01-16T14:55:31;5.32;78.70
69335;SHT31;56477;52.742;15.242;2023-01-16T14:57:57;5.26;78.80
69335;SHT31;56477;52.742;15.242;2023-01-16T15:00:25;5.24;78.70
69335;SHT31;56477;52.742;15.242;2023-01-16T15:03:02;5.23;78.66
69335;SHT31;56477;52.742;15.242;2023-01-16T15:05:46;5.18;79.00
69335;SHT31;56477;52.742;15.242;2023-01-16T15:10:47;5.07;79.25
69335;SHT31;56477;52.742;15.242;2023-01-16T15:15:59;5.00;79.44
69335;SHT31;56477;52.742;15.242;2023-01-16T15:18:26;4.94;79.24
69335;SHT31;56477;52.742;15.242;2023-01-16T15:21:16;4.90;79.05
69335;SHT31;56477;52.742;15.242;2023-01-16T15:24:02;4.89;78.88
69335;SHT31;56477;52.742;15.242;2023-01-16T15:32:14;4.79;79.05
69335;SHT31;56477;52.742;15.242;2023-01-16T15:35:03;4.75;79.00
69335;SHT31;56477;52.742;15.242;2023-01-16T15:37:30;4.70;79.33
69335;SHT31;56477;52.742;15.242;2023-01-16T15:39:58;4.66;79.59
69335;SHT31;56477;52.742;15.242;2023-01-16T15:42:27;4.60;79.66
69335;SHT31;56477;52.742;15.242;2023-01-16T15:45:24;4.59;79.94
69335;SHT31;56477;52.742;15.242;2023-01-16T15:50:56;4.53;80.20
69335;SHT31;56477;52.742;15.242;2023-01-16T15:53:32;4.46;80.28
69335;SHT31;56477;52.742;15.242;2023-01-16T15:56:04;4.44;80.55
69335;SHT31;56477;52.742;15.242;2023-01-16T15:58:32;4.35;80.89
69335;SHT31;56477;52.742;15.242;2023-01-16T16:01:31;4.34;81.17
69335;SHT31;56477;52.742;15.242;2023-01-16T16:04:01;4.25;81.51
69335;SHT31;56477;52.742;15.242;2023-01-16T16:06:28;4.27;81.68
69335;SHT31;56477;52.742;15.242;2023-01-16T16:09:00;4.18;81.90
69335;SHT31;56477;52.742;15.242;2023-01-16T16:11:30;4.11;82.41
69335;SHT31;56477;52.742;15.242;2023-01-16T16:14:27;4.04;82.46
69335;SHT31;56477;52.742;15.242;2023-01-16T16:17:19;4.00;82.84
69335;SHT31;56477;52.742;15.242;2023-01-16T16:25:50;3.86;83.49
69335;SHT31;56477;52.742;15.242;2023-01-16T16:28:22;3.79;83.90
69335;SHT31;56477;52.742;15.242;2023-01-16T16:31:02;3.71;84.26
69335;SHT31;56477;52.742;15.242;2023-01-16T16:33:30;3.80;83.64
69335;SHT31;56477;52.742;15.242;2023-01-16T16:35:59;3.80;83.38
69335;SHT31;56477;52.742;15.242;2023-01-16T16:38:32;3.87;83.15
69335;SHT31;56477;52.742;15.242;2023-01-16T16:51:48;3.81;83.43
69335;SHT31;56477;52.742;15.242;2023-01-16T16:54:15;3.77;83.49
69335;SHT31;56477;52.742;15.242;2023-01-16T16:56:46;3.73;83.95
69335;SHT31;56477;52.742;15.242;2023-01-16T16:59:17;3.67;84.09
69335;SHT31;56477;52.742;15.242;2023-01-16T17:01:47;3.58;84.37
69335;SHT31;56477;52.742;15.242;2023-01-16T17:04:13;3.48;84.76
69335;SHT31;56477;52.742;15.242;2023-01-16T17:06:42;3.55;84.33
69335;SHT31;56477;52.742;15.242;2023-01-16T17:09:12;3.60;83.92
69335;SHT31;56477;52.742;15.242;2023-01-16T17:11:41;3.59;84.15
69335;SHT31;56477;52.742;15.242;2023-01-16T17:14:06;3.48;84.59
69335;SHT31;56477;52.742;15.242;2023-01-16T17:16:33;3.43;84.67
69335;SHT31;56477;52.742;15.242;2023-01-16T17:19:26;3.33;85.66
69335;SHT31;56477;52.742;15.242;2023-01-16T17:21:54;3.29;85.60
69335;SHT31;56477;52.742;15.242;2023-01-16T17:24:20;3.25;86.10
69335;SHT31;56477;52.742;15.242;2023-01-16T17:26:46;3.15;86.31
69335;SHT31;56477;52.742;15.242;2023-01-16T17:29:13;3.09;86.58
69335;SHT31;56477;52.742;15.242;2023-01-16T17:31:42;3.05;86.56
69335;SHT31;56477;52.742;15.242;2023-01-16T17:34:19;3.01;87.13
69335;SHT31;56477;52.742;15.242;2023-01-16T17:36:46;3.00;86.90
69335;SHT31;56477;52.742;15.242;2023-01-16T17:39:19;3.00;87.33
69335;SHT31;56477;52.742;15.242;2023-01-16T17:41:45;2.94;87.35
69335;SHT31;56477;52.742;15.242;2023-01-16T17:44:16;2.91;87.40
69335;SHT31;56477;52.742;15.242;2023-01-16T17:47:02;2.88;87.29
69335;SHT31;56477;52.742;15.242;2023-01-16T17:49:28;2.90;87.20
69335;SHT31;56477;52.742;15.242;2023-01-16T17:51:54;2.91;87.39
69335;SHT31;56477;52.742;15.242;2023-01-16T17:54:20;2.95;86.92
69335;SHT31;56477;52.742;15.242;2023-01-16T17:57:05;2.95;86.91
69335;SHT31;56477;52.742;15.242;2023-01-16T17:59:31;2.92;87.09
69335;SHT31;56477;52.742;15.242;2023-01-16T18:01:57;2.90;86.94
69335;SHT31;56477;52.742;15.242;2023-01-16T18:04:24;2.88;87.14
69335;SHT31;56477;52.742;15.242;2023-01-16T18:06:50;2.83;87.43
69335;SHT31;56477;52.742;15.242;2023-01-16T18:09:16;2.80;87.33
69335;SHT31;56477;52.742;15.242;2023-01-16T18:11:43;2.83;87.09
69335;SHT31;56477;52.742;15.242;2023-01-16T18:14:28;2.94;86.23
69335;SHT31;56477;52.742;15.242;2023-01-16T18:17:15;3.02;85.68
69335;SHT31;56477;52.742;15.242;2023-01-16T18:19:54;3.09;85.13
69335;SHT31;56477;52.742;15.242;2023-01-16T18:22:27;3.09;85.27
69335;SHT31;56477;52.742;15.242;2023-01-16T18:24:54;3.11;84.65
69335;SHT31;56477;52.742;15.242;2023-01-16T18:27:21;3.12;84.42
69335;SHT31;56477;52.742;15.242;2023-01-16T18:29:48;3.15;84.46
69335;SHT31;56477;52.742;15.242;2023-01-16T18:32:15;3.13;84.46
69335;SHT31;56477;52.742;15.242;2023-01-16T18:34:49;3.15;83.98
69335;SHT31;56477;52.742;15.242;2023-01-16T18:37:16;3.15;83.92
69335;SHT31;56477;52.742;15.242;2023-01-16T18:39:44;3.15;83.59
69335;SHT31;56477;52.742;15.242;2023-01-16T18:42:29;3.12;83.70
69335;SHT31;56477;52.742;15.242;2023-01-16T18:45:14;3.07;84.09
69335;SHT31;56477;52.742;15.242;2023-01-16T18:48:00;3.11;83.59
69335;SHT31;56477;52.742;15.242;2023-01-16T18:50:44;3.09;83.38
69335;SHT31;56477;52.742;15.242;2023-01-16T18:53:42;3.02;83.92
69335;SHT31;56477;52.742;15.242;2023-01-16T18:56:30;2.92;84.14
69335;SHT31;56477;52.742;15.242;2023-01-16T18:59:21;3.01;83.90